Latest Weather Observations for Parawa West

IDS60901

Issued at 9:15 pm CST Tuesday 30 September 2014 (issued every 10 minutes, with the page automatically refreshed every 10 minutes)

About weather observations | Map of Adelaide area stations | Latest observations for Adelaide area | Other Formats
Station Details ID: 023875 Name: SECOND VALLEY FOREST AWS Lat: -35.57 Lon: 138.29 Height: 341.0 m
Data from the previous 72 hours. | See also: Recent months at Parawa West
Date/Time
CST
Tmp

°C
App
Tmp
°C
Dew
Point
°C
Rel
Hum
%
Delta-T

°C
Wind Press
QNH
hPa
Press
MSL
hPa
Rain
since
9 am
mm
Dir
 
Spd
km/h
Gust
km/h
Spd
kts
Gust
kts
30/09:00pm 9.0 5.9 7.1 88 0.9 SW 13 20 7 11 1021.1 1021.1 2.0
30/08:30pm 9.0 5.1 7.0 87 1.0 WSW 17 26 9 14 1020.9 1020.9 2.0
30/08:00pm 9.6 5.9 6.1 79 1.6 WSW 15 22 8 12 1020.4 1020.4 2.0
30/07:30pm 9.5 6.7 6.9 84 1.2 WSW 11 19 6 10 1019.9 1020.0 2.0
30/07:00pm 9.9 5.8 6.3 78 1.7 WSW 17 28 9 15 1019.2 1019.3 2.0
30/06:30pm 10.9 6.6 5.4 69 2.6 W 17 26 9 14 1018.5 1018.5 2.0
30/06:00pm 11.1 6.4 6.0 71 2.4 W 20 28 11 15 1018.2 1018.2 2.0
30/05:30pm 12.1 8.1 6.6 69 2.7 WSW 17 30 9 16 1017.7 1017.7 2.0
30/05:00pm 12.4 7.9 6.0 65 3.1 WSW 19 32 10 17 1017.1 1017.2 2.0
30/04:30pm 12.8 8.2 5.5 61 3.5 W 19 33 10 18 1016.6 1016.7 2.0
30/04:00pm 13.7 8.4 4.8 55 4.2 WSW 22 35 12 19 1016.2 1016.2 2.0
30/03:30pm 13.9 8.4 5.8 58 3.9 WSW 24 41 13 22 1015.9 1015.9 2.0
30/03:00pm 14.1 8.9 7.2 63 3.4 W 24 43 13 23 1015.5 1015.5 2.0
30/02:30pm 14.3 10.3 9.1 71 2.7 WSW 20 33 11 18 1015.0 1015.0 2.0
30/02:00pm 12.8 9.9 10.9 88 1.0 W 17 28 9 15 1015.0 1015.0 2.0
30/01:30pm 11.6 7.3 10.7 94 0.5 W 24 35 13 19 1014.9 1014.9 2.0
30/01:00pm 12.4 8.3 11.6 95 0.4 W 24 35 13 19 1014.3 1014.3 1.6
30/12:37pm 11.4 6.0 10.9 97 0.3 W 30 50 16 27 1014.2 1014.2 1.6
30/12:30pm 11.6 5.9 11.0 96 0.3 W 32 44 17 24 1014.0 1014.1 1.4
30/12:00pm 13.6 6.4 10.6 82 1.6 WNW 39 59 21 32 1013.3 1013.3 0.2
30/11:30am 14.0 6.2 11.0 82 1.6 WNW 43 67 23 36 1013.1 1013.1 0.2
30/11:00am 13.1 6.5 11.5 90 0.9 WNW 37 65 20 35 1012.8 1012.8 0.2
30/10:30am 14.1 7.2 11.6 85 1.4 WNW 39 59 21 32 1012.5 1012.5 0.0
30/10:00am 13.7 7.1 11.4 86 1.2 WNW 37 63 20 34 1012.5 1012.5 0.0
30/09:30am 13.3 7.2 11.7 90 0.9 NW 35 57 19 31 1012.1 1012.1 0.0
30/09:04am 13.3 8.1 11.5 89 1.0 NW 30 48 16 26 1011.8 1011.8 0.0
30/09:00am 13.5 8.0 11.7 89 1.0 NW 32 48 17 26 1011.8 1011.8 0.2
30/08:30am 13.2 7.5 11.1 87 1.1 NW 32 54 17 29 1011.6 1011.6 0.2
30/08:00am 13.1 8.2 11.2 88 1.0 NW 28 46 15 25 1011.3 1011.2 0.2
30/07:30am 13.0 7.5 10.7 86 1.2 NW 30 54 16 29 1011.5 1011.5 0.2
30/07:26am 12.8 7.3 10.7 87 1.1 NW 30 48 16 26 1011.2 1011.1 0.2
30/07:00am 12.6 6.7 10.5 87 1.1 NW 32 46 17 25 1011.3 1011.2 0.2
30/06:30am 12.4 6.5 10.5 88 1.0 NW 32 46 17 25 1010.1 1010.1 0.2
30/06:12am 11.8 6.8 10.9 94 0.5 NW 28 46 15 25 1010.2 1010.2 0.2
30/06:00am 11.7 7.3 11.7 100 0.0 NW 26 41 14 22 1010.2 1010.2 0.2
30/05:30am 11.8 7.4 11.8 100 0.0 NNW 26 41 14 22 1009.9 1009.9 0.2
30/05:00am 12.1 8.6 12.1 100 0.0 NNW 22 32 12 17 1009.9 1009.9 0.2
30/04:30am 12.0 9.0 11.8 99 0.1 NNW 19 28 10 15 1010.0 1010.0 0.2
30/04:00am 11.5 8.2 11.5 100 0.0 NNW 20 30 11 16 1009.6 1009.6 0.2
30/03:30am 11.5 9.1 11.5 100 0.0 NNW 15 22 8 12 1010.0 1010.0 0.2
30/03:00am 11.7 9.4 11.7 100 0.0 NNW 15 26 8 14 1010.4 1010.4 0.2
30/02:30am 11.5 8.7 11.5 100 0.0 NNW 17 24 9 13 1010.5 1010.5 0.2
30/02:00am 11.5 9.5 11.5 100 0.0 NNW 13 26 7 14 1010.9 1010.9 0.2
30/01:30am 11.3 9.6 11.3 100 0.0 NNW 11 19 6 10 1011.6 1011.6 0.2
30/01:00am 11.7 9.4 11.7 100 0.0 NNW 15 24 8 13 1012.1 1012.1 0.2
30/12:30am 11.7 9.8 11.7 100 0.0 NNW 13 20 7 11 1012.7 1012.7 0.2
30/12:00am 11.6 10.4 11.6 100 0.0 NNW 9 15 5 8 1013.1 1013.1 0.2
 
Date/Time
CST
Tmp

°C
App
Tmp
°C
Dew
Point
°C
Rel
Hum
%
Delta-T

°C
Wind Press
QNH
hPa
Press
MSL
hPa
Rain
since
9 am
mm
Dir
 
Spd
km/h
Gust
km/h
Spd
kts
Gust
kts
29/11:30pm 11.5 9.8 11.3 99 0.1 NNW 11 20 6 11 1013.6 1013.6 0.2
29/11:00pm 11.4 9.7 11.1 98 0.2 NNW 11 19 6 10 1013.9 1014.0 0.2
29/10:30pm 11.5 9.0 11.2 98 0.2 NW 15 22 8 12 1014.3 1014.3 0.2
29/10:00pm 11.6 8.7 11.1 97 0.3 NW 17 26 9 14 1014.4 1014.4 0.2
29/09:30pm 11.6 8.3 10.8 95 0.4 WNW 19 26 10 14 1014.4 1014.4 0.2
29/09:00pm 11.4 8.2 10.1 92 0.7 WNW 17 28 9 15 1014.3 1014.3 0.2
29/08:30pm 11.5 8.3 10.1 91 0.7 NW 17 26 9 14 1014.2 1014.2 0.2
29/08:00pm 11.3 7.6 9.4 88 1.0 WNW 19 32 10 17 1013.8 1013.8 0.2
29/07:30pm 11.3 8.0 9.6 89 0.9 WNW 17 32 9 17 1013.5 1013.5 0.2
29/07:00pm 11.2 8.7 9.6 90 0.8 NW 13 20 7 11 1013.2 1013.2 0.2
29/06:30pm 11.5 9.0 9.6 88 1.0 NNW 13 19 7 10 1012.9 1012.9 0.2
29/06:00pm 12.5 9.5 9.3 81 1.6 NW 15 20 8 11 1012.8 1012.8 0.2
29/05:30pm 13.4 10.4 9.1 75 2.2 NW 15 24 8 13 1012.6 1012.6 0.2
29/05:00pm 13.5 10.2 9.7 78 2.0 NW 17 26 9 14 1012.5 1012.5 0.2
29/04:30pm 13.9 10.7 9.9 77 2.1 NW 17 26 9 14 1012.3 1012.3 0.2
29/04:00pm 14.1 10.8 9.7 75 2.3 NW 17 28 9 15 1012.3 1012.3 0.2
29/03:30pm 14.8 10.5 10.6 76 2.3 NW 24 37 13 20 1012.2 1012.2 0.2
29/03:00pm 15.1 11.2 10.9 76 2.3 NW 22 37 12 20 1012.3 1012.3 0.2
29/02:30pm 14.6 10.4 11.0 79 1.9 NW 24 37 13 20 1012.5 1012.5 0.2
29/02:00pm 15.0 10.7 10.8 76 2.3 NW 24 41 13 22 1012.8 1012.8 0.2
29/01:30pm 14.9 10.6 10.7 76 2.3 NW 24 35 13 19 1013.0 1013.0 0.0
29/01:00pm 14.7 10.9 9.9 73 2.5 NNW 20 32 11 17 1013.4 1013.4 0.0
29/12:30pm 14.7 10.5 9.7 72 2.6 NW 22 33 12 18 1013.9 1014.0 0.0
29/12:00pm 14.7 10.3 10.3 75 2.3 NW 24 39 13 21 1014.2 1014.2 0.0
29/11:30am 14.1 10.2 10.9 81 1.7 NW 22 37 12 20 1014.5 1014.5 0.0
29/11:00am 13.9 10.8 11.6 86 1.3 NNW 19 30 10 16 1014.8 1014.8 0.0
29/10:30am 12.7 10.4 11.9 95 0.4 NNW 15 30 8 16 1015.0 1015.0 0.0
29/10:00am 13.2 10.7 10.9 86 1.2 NNW 15 20 8 11 1015.0 1015.0 0.0
29/09:30am 13.2 10.1 10.2 82 1.6 NW 17 24 9 13 1015.1 1015.1 0.0
29/09:00am 12.9 9.5 9.2 78 1.9 WNW 17 24 9 13 1015.0 1015.0 0.0
29/08:30am 13.1 10.6 9.7 80 1.8 WNW 13 24 7 13 1014.7 1014.7 0.0
29/08:00am 12.2 9.2 9.4 83 1.4 WNW 15 20 8 11 1014.6 1014.6 0.0
29/07:30am 11.8 9.4 10.2 90 0.8 W 13 20 7 11 1014.3 1014.3 0.0
29/07:00am 11.3 9.4 10.5 95 0.4 W 11 15 6 8 1014.2 1014.2 0.0
29/06:30am 11.3 9.2 11.0 98 0.2 W 13 20 7 11 1013.9 1014.0 0.0
29/06:00am 11.5 9.1 11.3 99 0.1 WNW 15 20 8 11 1013.7 1013.7 0.0
29/05:30am 11.5 8.7 11.3 99 0.1 W 17 24 9 13 1013.5 1013.5 0.0
29/05:00am 11.8 8.4 11.3 97 0.3 WNW 20 32 11 17 1013.0 1013.0 0.0
29/04:30am 11.9 8.5 11.3 96 0.3 WNW 20 37 11 20 1012.7 1012.7 0.0
29/04:00am 11.9 8.5 11.1 95 0.4 WNW 20 30 11 16 1012.7 1012.7 0.0
29/03:30am 11.8 8.0 11.2 96 0.3 WNW 22 39 12 21 1012.5 1012.5 0.0
29/03:00am 11.9 7.8 11.3 96 0.3 WNW 24 41 13 22 1012.7 1012.7 0.0
29/02:30am 11.7 7.1 11.1 96 0.3 WNW 26 39 14 21 1012.6 1012.6 0.0
29/02:00am 11.8 7.6 11.0 95 0.4 NW 24 37 13 20 1012.7 1012.7 0.0
29/01:30am 12.1 7.9 11.2 94 0.5 NW 24 41 13 22 1012.8 1012.8 0.0
29/01:00am 12.3 7.7 11.2 93 0.6 WNW 26 37 14 20 1013.1 1013.1 0.0
29/12:30am 12.2 7.6 10.9 92 0.7 WNW 26 37 14 20 1013.4 1013.4 0.0
29/12:00am 12.2 8.3 10.8 91 0.7 NW 22 37 12 20 1013.8 1013.8 0.0
 
Date/Time
CST
Tmp

°C
App
Tmp
°C
Dew
Point
°C
Rel
Hum
%
Delta-T

°C
Wind Press
QNH
hPa
Press
MSL
hPa
Rain
since
9 am
mm
Dir
 
Spd
km/h
Gust
km/h
Spd
kts
Gust
kts
28/11:30pm 12.0 8.0 10.4 90 0.8 WNW 22 35 12 19 1013.8 1013.8 0.0
28/11:00pm 12.4 8.8 10.5 88 1.0 NW 20 37 11 20 1014.2 1014.2 0.0
28/10:30pm 12.2 8.6 10.6 90 0.8 WNW 20 41 11 22 1013.9 1014.0 0.0
28/10:00pm 12.4 8.1 10.6 89 1.0 WNW 24 37 13 20 1013.4 1013.4 0.0
28/09:30pm 12.1 7.8 10.8 92 0.7 NW 24 37 13 20 1013.4 1013.4 0.0
28/09:00pm 12.1 7.8 10.7 91 0.7 NW 24 37 13 20 1012.8 1012.8 0.0
28/08:30pm 12.1 7.7 10.5 90 0.8 WNW 24 41 13 22 1012.7 1012.7 0.0
28/08:00pm 12.5 7.3 10.4 87 1.1 WNW 28 44 15 24 1012.3 1012.3 0.0
28/07:30pm 12.3 6.9 9.5 83 1.4 WNW 28 41 15 22 1011.8 1011.8 0.0
28/07:00pm 12.3 7.6 10.7 90 0.8 WNW 26 43 14 23 1010.9 1010.9 0.0
28/06:30pm 12.5 8.2 10.9 90 0.9 WNW 24 37 13 20 1010.3 1010.3 0.0
28/06:00pm 12.9 8.9 10.4 85 1.3 WNW 22 39 12 21 1009.6 1009.6 0.0
28/05:30pm 13.7 8.6 10.7 82 1.6 WNW 28 41 15 22 1009.4 1009.4 0.0
28/05:00pm 14.7 9.7 10.9 78 2.0 WNW 28 44 15 24 1008.9 1008.8 0.0
28/04:30pm 15.6 11.0 9.7 68 3.1 WNW 24 35 13 19 1008.4 1008.3 0.0
28/04:00pm 15.7 12.0 10.0 69 3.0 WNW 20 32 11 17 1008.2 1008.1 0.0
28/03:30pm 17.6 14.1 10.2 62 4.0 W 19 33 10 18 1007.6 1007.6 0.0
28/03:00pm 18.1 13.3 10.2 60 4.3 W 26 44 14 24 1007.4 1007.4 0.0
28/02:30pm 18.2 13.0 10.1 59 4.4 W 28 44 15 24 1007.3 1007.3 0.0
28/02:00pm 18.8 13.3 10.4 58 4.6 WNW 30 48 16 26 1007.2 1007.2 0.0
28/01:55pm 19.2 14.0 10.2 56 4.9 WNW 28 48 15 26 1007.1 1007.1 0.0
28/01:30pm 19.8 14.2 10.2 54 5.3 WNW 30 43 16 23 1007.3 1007.3 0.0
28/01:00pm 21.3 17.1 8.2 43 7.0 NW 20 39 11 21 1007.1 1007.1 0.0
28/12:30pm 21.4 16.5 8.3 43 7.0 NNW 24 41 13 22 1007.1 1007.1 0.0
28/12:00pm 20.9 16.0 8.5 45 6.6 NNW 24 43 13 23 1007.2 1007.2 0.0
28/11:30am 21.0 17.1 9.3 47 6.4 NNW 20 33 11 18 1007.5 1007.5 0.0
28/11:00am 20.5 16.5 9.1 48 6.1 NNW 20 35 11 19 1007.7 1007.7 0.0
28/10:30am 20.0 16.3 9.3 50 5.8 NW 19 35 10 19 1007.8 1007.8 0.0
28/10:00am 19.8 16.7 8.8 49 5.9 NNW 15 35 8 19 1008.1 1008.0 0.0
28/09:30am 19.5 17.3 9.4 52 5.4 NNW 11 26 6 14 1008.3 1008.2 0.0
28/09:00am 18.4 15.5 9.5 56 4.8 NW 15 35 8 19 1008.9 1008.8 0.0
28/08:30am 18.1 15.4 8.9 55 4.9 NW 13 35 7 19 1008.5 1008.4 0.0
28/08:00am 18.0 15.0 7.7 51 5.3 NW 13 30 7 16 1008.5 1008.4 0.0
28/07:30am 18.5 15.2 6.4 45 6.1 NNW 13 33 7 18 1008.1 1008.0 0.0
28/07:00am 18.3 15.3 5.8 44 6.2 WNW 11 24 6 13 1007.0 1007.0 0.0
28/06:30am 17.7 14.4 6.3 47 5.7 N 13 30 7 16 1007.0 1007.0 0.0
28/06:00am 17.8 14.9 6.3 47 5.8 N 11 26 6 14 1007.0 1007.0 0.0
28/05:30am 17.5 14.3 7.0 50 5.3 NNW 13 32 7 17 1007.0 1007.0 0.0
28/05:00am 17.4 14.7 7.2 51 5.2 NW 11 30 6 16 1007.0 1007.0 0.0
28/04:30am 17.9 14.4 7.0 49 5.6 NNW 15 41 8 22 1007.2 1007.2 0.0
28/04:00am 18.1 13.8 7.2 49 5.6 NNW 19 43 10 23 1007.2 1007.2 0.0
28/03:30am 17.9 14.0 7.3 50 5.4 NW 17 43 9 23 1007.4 1007.4 0.0
28/03:00am 17.7 14.6 7.4 51 5.3 NW 13 28 7 15 1007.9 1007.9 0.0
28/02:30am 18.0 14.2 7.4 50 5.5 NNW 17 52 9 28 1008.3 1008.2 0.0
28/02:00am 18.3 14.8 7.4 49 5.6 NW 15 46 8 25 1008.5 1008.4 0.0
28/01:30am 18.7 14.3 7.2 47 5.9 NNW 20 54 11 29 1009.0 1009.0 0.0
28/01:00am 18.9 14.6 7.0 46 6.1 NW 19 48 10 26 1009.1 1009.1 0.0
28/12:30am 18.9 14.6 7.0 46 6.1 NNW 19 39 10 21 1009.9 1009.9 0.0
28/12:00am 19.1 15.9 6.9 45 6.3 NW 13 41 7 22 1010.3 1010.3 0.0
 
Date/Time
CST
Tmp

°C
App
Tmp
°C
Dew
Point
°C
Rel
Hum
%
Delta-T

°C
Wind Press
QNH
hPa
Press
MSL
hPa
Rain
since
9 am
mm
Dir
 
Spd
km/h
Gust
km/h
Spd
kts
Gust
kts
27/11:30pm 19.8 16.5 6.5 42 6.8 NW 13 33 7 18 1010.7 1010.7 0.0
27/11:00pm 20.2 16.9 6.2 40 7.1 NW 13 30 7 16 1011.2 1011.1 0.0
27/10:30pm 20.6 17.3 6.5 40 7.2 NW 13 33 7 18 1011.6 1011.6 0.0
27/10:00pm 21.3 18.3 6.0 37 7.8 NW 11 32 6 17 1011.8 1011.8 0.0
27/09:30pm 21.8 18.4 5.7 35 8.2 NW 13 35 7 19 1012.0 1012.0 0.0

Latest Capital City Observations: Canberra | Sydney | Melbourne | Brisbane | Adelaide | Perth | Hobart | Darwin

Other Formats:

Comma delimited format used in spreadsheet applications
http://www.bom.gov.au/fwo/IDS60901/IDS60901.94811.axf

JavaScript Object Notation format (JSON) in row-major order
http://www.bom.gov.au/fwo/IDS60901/IDS60901.94811.json